createdAt,value
2019-05-12T00:00:39.235Z,19.90
2019-05-12T00:03:08.524Z,16.85
2019-05-12T00:05:38.309Z,19.80
2019-05-12T00:08:08.293Z,14.33
2019-05-12T00:10:38.749Z,16.73
2019-05-12T00:13:08.397Z,14.87
2019-05-12T00:15:38.437Z,15.23
2019-05-12T00:18:09.235Z,17.05
2019-05-12T00:20:38.625Z,14.73
2019-05-12T00:23:23.124Z,15.68
2019-05-12T00:25:40.201Z,19.12
2019-05-12T00:28:08.839Z,25.00
2019-05-12T00:30:41.707Z,21.62
2019-05-12T00:33:10.372Z,23.83
2019-05-12T00:35:39.177Z,15.83
2019-05-12T00:38:09.099Z,13.28
2019-05-12T00:40:39.196Z,15.95
2019-05-12T00:43:08.973Z,15.08
2019-05-12T00:45:38.886Z,16.30
2019-05-12T00:48:09.188Z,14.38
2019-05-12T00:53:09.009Z,14.58
2019-05-12T00:58:08.485Z,19.37
2019-05-12T01:00:40.697Z,21.55
2019-05-12T01:03:08.695Z,20.32
2019-05-12T01:05:38.359Z,22.07
2019-05-12T01:08:09.154Z,23.98
2019-05-12T01:10:38.990Z,21.48
2019-05-12T01:15:42.905Z,23.70
2019-05-12T01:18:11.588Z,22.45
2019-05-12T01:20:41.102Z,24.55
2019-05-12T01:23:09.392Z,27.48
2019-05-12T01:25:39.586Z,24.32
2019-05-12T01:28:10.333Z,27.87
2019-05-12T01:30:39.335Z,27.25
2019-05-12T01:33:08.886Z,25.92
2019-05-12T01:35:39.383Z,27.20
2019-05-12T01:38:08.562Z,26.05
2019-05-12T01:40:39.357Z,27.25
2019-05-12T01:43:08.866Z,30.40
2019-05-12T01:45:38.306Z,35.25
2019-05-12T01:48:08.717Z,30.95
2019-05-12T01:50:38.672Z,34.40
2019-05-12T01:53:08.364Z,31.62
2019-05-12T01:55:38.609Z,34.50
2019-05-12T01:58:08.464Z,27.55
2019-05-12T02:00:38.728Z,30.62
2019-05-12T02:03:08.979Z,33.85
2019-05-12T02:05:42.210Z,30.50
2019-05-12T02:08:15.795Z,37.40
2019-05-12T02:10:44.427Z,33.48
2019-05-12T02:13:13.396Z,32.70
2019-05-12T02:15:42.413Z,39.75
2019-05-12T02:18:11.004Z,38.92
2019-05-12T02:20:39.798Z,35.43
2019-05-12T02:23:09.972Z,36.48
2019-05-12T02:25:39.031Z,40.92
2019-05-12T02:28:09.129Z,35.50
2019-05-12T02:30:41.800Z,39.07
2019-05-12T02:33:10.910Z,51.02
2019-05-12T02:35:39.903Z,39.33
2019-05-12T02:38:08.544Z,38.10
2019-05-12T02:40:37.556Z,42.80
2019-05-12T02:43:06.123Z,40.20
2019-05-12T02:45:35.963Z,38.02
2019-05-12T02:48:05.389Z,38.45
2019-05-12T02:50:36.249Z,43.83
2019-05-12T02:53:06.047Z,45.78
2019-05-12T02:55:35.734Z,36.42
2019-05-12T02:58:05.907Z,43.35
2019-05-12T03:00:36.226Z,38.73
2019-05-12T03:03:08.314Z,41.63
2019-05-12T03:05:38.650Z,43.58
2019-05-12T03:08:07.060Z,39.40
2019-05-12T03:10:36.000Z,42.90
2019-05-12T03:13:05.071Z,39.23
2019-05-12T03:15:36.357Z,43.42
2019-05-12T03:18:06.164Z,42.70
2019-05-12T03:20:35.912Z,44.55
2019-05-12T03:23:06.216Z,43.10
2019-05-12T03:25:36.451Z,42.27
2019-05-12T03:28:08.615Z,56.00
2019-05-12T03:30:39.318Z,43.58
2019-05-12T03:33:11.580Z,43.70
2019-05-12T03:35:43.457Z,44.15
2019-05-12T03:40:39.174Z,42.05
2019-05-12T03:43:07.579Z,38.85
2019-05-12T03:45:36.730Z,37.53
2019-05-12T03:48:06.515Z,39.78
2019-05-12T03:50:36.280Z,39.92
2019-05-12T03:53:10.343Z,39.83
2019-05-12T03:55:41.875Z,36.38
2019-05-12T03:58:06.558Z,37.85
2019-05-12T04:00:36.318Z,37.95
2019-05-12T04:03:05.372Z,40.03
2019-05-12T04:05:35.116Z,40.58
2019-05-12T04:08:06.654Z,38.83
2019-05-12T04:10:36.329Z,34.10
2019-05-12T04:13:05.560Z,34.95
2019-05-12T04:15:35.614Z,41.18
2019-05-12T04:18:06.148Z,41.95
2019-05-12T04:23:06.381Z,34.78
2019-05-12T04:25:50.961Z,46.50
2019-05-12T04:28:06.811Z,39.73
2019-05-12T04:30:36.065Z,39.80
2019-05-12T04:33:05.336Z,38.30
2019-05-12T04:35:36.168Z,42.45
2019-05-12T04:38:05.507Z,39.63
2019-05-12T04:40:36.022Z,39.58
2019-05-12T04:43:06.144Z,46.00
2019-05-12T04:45:35.351Z,39.50
2019-05-12T04:48:05.152Z,51.33
2019-05-12T04:50:35.767Z,40.60
2019-05-12T04:53:06.291Z,41.23
2019-05-12T04:55:36.041Z,41.58
2019-05-12T04:58:04.830Z,43.50
2019-05-12T05:00:34.926Z,46.83
2019-05-12T05:03:06.125Z,40.67
2019-05-12T05:05:35.762Z,44.75
2019-05-12T05:08:05.397Z,49.50
2019-05-12T05:10:34.578Z,39.35
2019-05-12T05:13:05.535Z,37.15
2019-05-12T05:15:35.237Z,38.65
2019-05-12T05:18:06.282Z,37.98
2019-05-12T05:20:34.942Z,39.78
2019-05-12T05:23:04.668Z,35.50
2019-05-12T05:25:34.354Z,35.52
2019-05-12T05:28:05.350Z,37.83
2019-05-12T05:30:34.535Z,35.28
2019-05-12T05:33:04.937Z,36.58
2019-05-12T05:35:39.391Z,35.43
2019-05-12T05:38:10.806Z,35.28
2019-05-12T05:40:37.629Z,34.88
2019-05-12T05:43:18.199Z,32.95
2019-05-12T05:48:09.856Z,34.88
2019-05-12T05:50:35.716Z,32.48
2019-05-12T05:53:09.205Z,35.17
2019-05-12T05:55:35.288Z,30.10
2019-05-12T05:58:10.131Z,29.80
2019-05-12T06:03:05.722Z,28.67
2019-05-12T06:05:38.474Z,29.98
2019-05-12T06:08:09.506Z,29.15
2019-05-12T06:10:40.335Z,27.48
2019-05-12T06:13:07.472Z,27.22
2019-05-12T06:15:40.554Z,26.50
2019-05-12T06:18:07.635Z,28.83
2019-05-12T06:20:38.109Z,26.93
2019-05-12T06:25:45.552Z,28.73
2019-05-12T06:28:08.900Z,31.20
2019-05-12T06:33:07.069Z,25.08
2019-05-12T06:35:42.142Z,27.55
2019-05-12T06:38:06.670Z,26.15
2019-05-12T06:40:41.219Z,25.88
2019-05-12T06:43:08.011Z,25.10
2019-05-12T06:45:41.848Z,25.52
2019-05-12T06:48:06.958Z,31.27
2019-05-12T06:50:39.119Z,26.52
2019-05-12T06:53:06.126Z,25.15
2019-05-12T06:55:39.032Z,29.95
2019-05-12T06:58:05.421Z,26.95
2019-05-12T07:00:35.327Z,25.02
2019-05-12T07:03:04.362Z,28.87
2019-05-12T07:05:38.238Z,27.17
2019-05-12T07:08:04.769Z,29.48
2019-05-12T07:10:39.456Z,25.62
2019-05-12T07:13:05.513Z,21.60
2019-05-12T07:18:10.062Z,26.53
2019-05-12T07:20:39.748Z,22.20
2019-05-12T07:23:08.361Z,27.48
2019-05-12T07:25:37.090Z,19.42
2019-05-12T07:28:07.952Z,24.92
2019-05-12T07:30:36.198Z,21.65
2019-05-12T07:33:05.028Z,19.67
2019-05-12T07:35:34.107Z,21.40
2019-05-12T07:38:04.557Z,20.05
2019-05-12T07:40:37.955Z,20.15
2019-05-12T07:43:16.267Z,19.62
2019-05-12T07:45:45.329Z,21.02
2019-05-12T07:48:13.967Z,22.25
2019-05-12T07:50:43.351Z,28.10
2019-05-12T07:53:14.275Z,24.47
2019-05-12T07:58:17.757Z,17.40
2019-05-12T08:03:19.052Z,19.23
2019-05-12T08:05:43.999Z,16.77
2019-05-12T08:08:14.534Z,14.75
2019-05-12T08:13:14.835Z,14.77
2019-05-12T08:15:45.847Z,14.90
2019-05-12T08:20:43.609Z,15.43
2019-05-12T08:23:14.176Z,13.13
2019-05-12T08:25:43.666Z,15.50
2019-05-12T08:28:18.369Z,16.30
2019-05-12T08:30:50.268Z,13.25
2019-05-12T08:33:15.473Z,12.50
2019-05-12T08:35:44.102Z,13.90
2019-05-12T08:38:14.462Z,13.28
2019-05-12T08:40:50.703Z,13.83
2019-05-12T08:43:17.266Z,11.97
2019-05-12T08:45:45.889Z,13.78
2019-05-12T08:48:21.254Z,11.65
2019-05-12T08:53:20.716Z,10.53
2019-05-12T08:55:46.016Z,12.60
2019-05-12T08:58:29.806Z,10.95
2019-05-12T09:00:50.148Z,15.65
2019-05-12T09:03:20.553Z,8.95
2019-05-12T09:05:48.449Z,12.20
2019-05-12T09:08:17.300Z,11.63
2019-05-12T09:10:46.132Z,12.82
2019-05-12T09:13:14.612Z,8.45
2019-05-12T09:15:43.902Z,7.28
2019-05-12T09:18:14.498Z,8.55
2019-05-12T09:20:48.756Z,9.35
2019-05-12T09:25:45.239Z,8.30
2019-05-12T09:28:13.790Z,9.35
2019-05-12T09:30:45.846Z,11.75
2019-05-12T09:33:14.090Z,6.40
2019-05-12T09:35:43.747Z,8.53
2019-05-12T09:38:21.458Z,7.65
2019-05-12T09:40:43.852Z,8.68
2019-05-12T09:43:13.753Z,5.47
2019-05-12T09:45:52.057Z,7.00
2019-05-12T09:48:14.990Z,9.25
2019-05-12T09:50:46.278Z,7.72
2019-05-12T09:55:44.013Z,6.80
2019-05-12T09:58:15.796Z,6.08
2019-05-12T10:00:43.562Z,5.97
2019-05-12T10:03:13.885Z,6.40
2019-05-12T10:05:44.242Z,6.03
2019-05-12T10:08:13.854Z,13.55
2019-05-12T10:10:46.789Z,7.40
2019-05-12T10:13:14.084Z,5.15
2019-05-12T10:15:43.154Z,8.33
2019-05-12T10:18:12.063Z,6.70
2019-05-12T10:20:44.128Z,6.83
2019-05-12T10:23:18.046Z,6.87
2019-05-12T10:25:44.831Z,6.25
2019-05-12T10:28:16.038Z,5.42
2019-05-12T10:30:47.060Z,6.20
2019-05-12T10:33:16.035Z,7.83
2019-05-12T10:35:44.981Z,7.72
2019-05-12T10:38:13.945Z,4.10
2019-05-12T10:40:44.458Z,5.22
2019-05-12T10:43:13.744Z,7.78
2019-05-12T10:45:44.184Z,5.22
2019-05-12T10:48:14.913Z,5.37
2019-05-12T10:50:44.289Z,4.40
2019-05-12T10:53:15.787Z,4.17
2019-05-12T10:55:44.173Z,5.40
2019-05-12T10:58:14.519Z,9.65
2019-05-12T11:05:44.511Z,3.72
2019-05-12T11:08:17.278Z,5.05
2019-05-12T11:10:50.411Z,6.28
2019-05-12T11:13:18.141Z,4.83
2019-05-12T11:15:49.571Z,3.72
2019-05-12T11:20:49.171Z,4.80
2019-05-12T11:23:17.809Z,7.35
2019-05-12T11:25:46.254Z,5.40
2019-05-12T11:28:14.725Z,4.15
2019-05-12T11:30:43.734Z,8.38
2019-05-12T11:33:12.573Z,5.67
2019-05-12T11:35:43.488Z,5.42
2019-05-12T11:38:13.450Z,8.23
2019-05-12T11:40:43.748Z,5.37
2019-05-12T11:43:14.309Z,5.55
2019-05-12T11:45:44.281Z,4.40
2019-05-12T11:48:14.406Z,4.08
2019-05-12T11:50:51.043Z,7.35
2019-05-12T11:53:16.152Z,3.80
2019-05-12T11:55:44.673Z,6.72
2019-05-12T11:58:13.706Z,4.22
2019-05-12T12:00:45.686Z,5.85
2019-05-12T12:03:17.863Z,5.50
2019-05-12T12:05:44.810Z,7.58
2019-05-12T12:08:14.436Z,3.98
2019-05-12T12:10:43.290Z,4.62
2019-05-12T12:13:14.061Z,5.25
2019-05-12T12:15:42.743Z,6.78
2019-05-12T12:18:14.980Z,7.47
2019-05-12T12:20:44.163Z,4.40
2019-05-12T12:23:14.087Z,3.90
2019-05-12T12:28:13.883Z,4.83
2019-05-12T12:30:47.358Z,10.13
2019-05-12T12:33:14.352Z,7.50
2019-05-12T12:35:44.498Z,3.87
2019-05-12T12:38:14.209Z,4.47
2019-05-12T12:40:44.144Z,4.43
2019-05-12T12:43:13.760Z,4.28
2019-05-12T12:45:50.930Z,4.17
2019-05-12T12:48:25.500Z,6.40
2019-05-12T12:50:53.862Z,6.20
2019-05-12T12:53:23.788Z,6.05
2019-05-12T12:58:26.885Z,5.42
2019-05-12T13:00:56.741Z,4.08
2019-05-12T13:03:29.474Z,3.77
2019-05-12T13:05:55.336Z,3.47
2019-05-12T13:08:24.694Z,7.05
2019-05-12T13:10:54.233Z,4.12
2019-05-12T13:13:24.581Z,5.65
2019-05-12T13:15:53.699Z,5.03
2019-05-12T13:18:30.365Z,4.35
2019-05-12T13:20:54.390Z,3.75
2019-05-12T13:23:36.753Z,11.45
2019-05-12T13:25:54.923Z,10.90
2019-05-12T13:28:25.930Z,4.05
2019-05-12T13:31:07.336Z,6.47
2019-05-12T13:33:24.600Z,4.45
2019-05-12T13:35:55.616Z,3.10
2019-05-12T13:38:24.022Z,3.95
2019-05-12T13:40:54.062Z,6.15
2019-05-12T13:43:23.886Z,6.40
2019-05-12T13:45:53.483Z,3.65
2019-05-12T13:48:23.977Z,4.08
2019-05-12T13:51:07.690Z,3.42
2019-05-12T13:53:25.595Z,4.95
2019-05-12T13:55:54.508Z,3.85
2019-05-12T13:58:28.328Z,4.67
2019-05-12T14:01:10.469Z,5.28
2019-05-12T14:03:28.151Z,4.75
2019-05-12T14:05:57.551Z,7.55
2019-05-12T14:08:26.206Z,8.55
2019-05-12T14:10:59.502Z,6.33
2019-05-12T14:13:25.392Z,4.22
2019-05-12T14:15:54.076Z,3.67
2019-05-12T14:18:22.674Z,5.25
2019-05-12T14:20:58.485Z,9.80
2019-05-12T14:23:23.973Z,8.25
2019-05-12T14:25:54.296Z,9.28
2019-05-12T14:28:23.646Z,10.35
2019-05-12T14:30:54.351Z,7.83
2019-05-12T14:33:24.570Z,7.08
2019-05-12T14:35:54.419Z,13.13
2019-05-12T14:38:27.468Z,11.80
2019-05-12T14:40:53.803Z,6.35
2019-05-12T14:43:24.120Z,6.58
2019-05-12T14:45:54.130Z,21.93
2019-05-12T14:48:24.462Z,11.05
2019-05-12T14:50:53.493Z,10.40
2019-05-12T14:53:24.085Z,10.18
2019-05-12T14:55:53.714Z,6.17
2019-05-12T14:58:23.769Z,7.10
2019-05-12T15:00:56.158Z,8.75
2019-05-12T15:05:54.492Z,9.55
2019-05-12T15:08:35.668Z,7.42
2019-05-12T15:10:53.803Z,11.22
2019-05-12T15:13:24.015Z,10.45
2019-05-12T15:15:58.126Z,10.35
2019-05-12T15:18:23.167Z,12.03
2019-05-12T15:20:54.308Z,8.75
2019-05-12T15:25:53.966Z,10.00
2019-05-12T15:28:23.621Z,8.45
2019-05-12T15:30:54.194Z,9.20
2019-05-12T15:33:24.352Z,8.68
2019-05-12T15:35:54.688Z,8.58
2019-05-12T15:38:24.652Z,8.50
2019-05-12T15:40:53.804Z,10.80
2019-05-12T15:43:24.343Z,9.95
2019-05-12T15:48:25.927Z,7.42
2019-05-12T15:50:54.148Z,9.38
2019-05-12T15:53:27.078Z,7.25
2019-05-12T15:55:56.076Z,9.10
2019-05-12T15:58:24.946Z,6.50
2019-05-12T16:00:54.473Z,9.30
2019-05-12T16:03:26.336Z,8.58
2019-05-12T16:05:54.379Z,8.20
2019-05-12T16:08:24.501Z,7.83
2019-05-12T16:10:53.520Z,8.88
2019-05-12T16:13:24.460Z,9.40
2019-05-12T16:15:56.031Z,12.82
2019-05-12T16:18:26.653Z,15.18
2019-05-12T16:20:59.091Z,11.15
2019-05-12T16:23:29.986Z,12.90
2019-05-12T16:26:01.341Z,16.73
2019-05-12T16:28:27.255Z,14.83
2019-05-12T16:30:58.940Z,15.93
2019-05-12T16:33:26.535Z,16.05
2019-05-12T16:35:59.977Z,19.10
2019-05-12T16:40:54.472Z,16.25
2019-05-12T16:43:23.919Z,11.63
2019-05-12T16:48:33.339Z,12.70
2019-05-12T16:51:07.266Z,15.30
2019-05-12T16:53:40.790Z,24.92
2019-05-12T16:56:09.262Z,14.47
2019-05-12T16:58:38.251Z,14.75
2019-05-12T17:01:06.634Z,12.90
2019-05-12T17:03:35.299Z,15.32
2019-05-12T17:06:04.531Z,19.05
2019-05-12T17:08:34.472Z,19.98
2019-05-12T17:11:22.995Z,12.55
2019-05-12T17:13:34.161Z,13.72
2019-05-12T17:16:04.340Z,17.07
2019-05-12T17:18:33.928Z,17.05
2019-05-12T17:21:04.240Z,20.88
2019-05-12T17:23:33.409Z,21.50
2019-05-12T17:26:03.815Z,19.10
2019-05-12T17:28:34.321Z,17.20
2019-05-12T17:31:03.814Z,20.25
2019-05-12T17:33:33.917Z,16.90
2019-05-12T17:36:11.477Z,22.07
2019-05-12T17:38:34.591Z,18.25
2019-05-12T17:41:03.834Z,23.35
2019-05-12T17:43:33.843Z,20.00
2019-05-12T17:46:04.423Z,19.75
2019-05-12T17:48:37.430Z,15.38
2019-05-12T17:51:05.565Z,14.93
2019-05-12T17:53:36.032Z,19.17
2019-05-12T17:56:06.927Z,16.42
2019-05-12T17:58:42.062Z,13.30
2019-05-12T18:01:06.126Z,13.43
2019-05-12T18:03:39.276Z,16.37
2019-05-12T18:06:05.391Z,15.40
2019-05-12T18:08:38.139Z,15.28
2019-05-12T18:11:04.286Z,15.55
2019-05-12T18:13:34.418Z,14.93
2019-05-12T18:16:05.891Z,18.60
2019-05-12T18:18:38.096Z,19.35
2019-05-12T18:21:06.068Z,19.32
2019-05-12T18:23:34.913Z,14.28
2019-05-12T18:26:11.484Z,16.75
2019-05-12T18:28:36.154Z,16.62
2019-05-12T18:31:04.831Z,16.62
2019-05-12T18:33:37.158Z,15.68
2019-05-12T18:36:04.862Z,18.23
2019-05-12T18:38:35.238Z,17.93
2019-05-12T18:41:03.875Z,16.62
2019-05-12T18:43:34.477Z,19.45
2019-05-12T18:46:08.748Z,22.50
2019-05-12T18:48:35.824Z,17.80
2019-05-12T18:51:11.732Z,20.77
2019-05-12T18:53:36.264Z,14.90
2019-05-12T18:56:05.198Z,17.07
2019-05-12T18:58:35.784Z,16.77
2019-05-12T19:01:05.671Z,16.30
2019-05-12T19:03:47.133Z,15.50
2019-05-12T19:06:05.064Z,17.50
2019-05-12T19:08:33.610Z,23.42
2019-05-12T19:11:17.813Z,14.40
2019-05-12T19:13:33.791Z,14.30
2019-05-12T19:16:04.527Z,19.20
2019-05-12T19:18:36.994Z,17.07
2019-05-12T19:21:04.885Z,10.45
2019-05-12T19:23:37.522Z,9.55
2019-05-12T19:26:05.114Z,10.53
2019-05-12T19:28:34.261Z,14.15
2019-05-12T19:31:06.216Z,14.93
2019-05-12T19:33:34.862Z,11.68
2019-05-12T19:36:07.209Z,14.20
2019-05-12T19:38:35.644Z,15.85
2019-05-12T19:41:04.782Z,9.85
2019-05-12T19:43:34.065Z,13.85
2019-05-12T19:46:03.717Z,10.63
2019-05-12T19:48:35.123Z,13.83
2019-05-12T19:51:19.964Z,20.90
2019-05-12T19:53:35.799Z,10.55
2019-05-12T19:56:05.692Z,11.85
2019-05-12T19:58:34.376Z,12.85
2019-05-12T20:01:04.887Z,9.60
2019-05-12T20:03:33.577Z,8.63
2019-05-12T20:06:02.579Z,12.43
2019-05-12T20:08:31.566Z,12.43
2019-05-12T20:11:00.067Z,12.37
2019-05-12T20:13:29.700Z,8.20
2019-05-12T20:15:59.574Z,12.00
2019-05-12T20:18:28.484Z,10.25
2019-05-12T20:20:57.277Z,9.25
2019-05-12T20:23:25.870Z,12.78
2019-05-12T20:25:54.235Z,6.70
2019-05-12T20:28:24.293Z,12.63
2019-05-12T20:31:00.959Z,11.95
2019-05-12T20:33:24.196Z,9.95
2019-05-12T20:35:54.726Z,8.63
2019-05-12T20:38:25.531Z,8.65
2019-05-12T20:40:55.283Z,10.20
2019-05-12T20:43:32.422Z,11.05
2019-05-12T20:45:54.925Z,8.75
2019-05-12T20:48:26.561Z,10.58
2019-05-12T20:50:53.862Z,16.20
2019-05-12T20:53:31.555Z,8.73
2019-05-12T20:55:54.829Z,10.85
2019-05-12T20:58:26.591Z,12.37
2019-05-12T21:00:54.243Z,9.23
2019-05-12T21:03:24.603Z,8.85
2019-05-12T21:05:59.755Z,10.45
2019-05-12T21:10:54.186Z,10.60
2019-05-12T21:13:29.101Z,8.68
2019-05-12T21:15:54.190Z,7.08
2019-05-12T21:18:23.754Z,8.85
2019-05-12T21:20:54.675Z,6.20
2019-05-12T21:23:24.130Z,6.50
2019-05-12T21:25:57.888Z,11.33
2019-05-12T21:30:55.460Z,7.83
2019-05-12T21:33:24.130Z,11.55
2019-05-12T21:35:54.660Z,6.90
2019-05-12T21:38:25.162Z,10.82
2019-05-12T21:40:54.129Z,6.62
2019-05-12T21:43:24.085Z,8.18
2019-05-12T21:45:53.709Z,5.75
2019-05-12T21:48:26.520Z,6.78
2019-05-12T21:50:55.608Z,10.40
2019-05-12T21:53:25.450Z,6.55
2019-05-12T21:55:57.700Z,11.53
2019-05-12T21:58:24.755Z,9.43
2019-05-12T22:01:04.143Z,5.45
2019-05-12T22:03:33.481Z,10.98
2019-05-12T22:06:15.557Z,8.93
2019-05-12T22:08:33.791Z,8.55
2019-05-12T22:11:09.646Z,8.18
2019-05-12T22:13:33.157Z,4.65
2019-05-12T22:16:03.827Z,5.95
2019-05-12T22:21:06.553Z,9.28
2019-05-12T22:23:33.721Z,7.95
2019-05-12T22:26:04.289Z,6.53
2019-05-12T22:28:34.164Z,7.45
2019-05-12T22:31:03.393Z,7.00
2019-05-12T22:33:33.409Z,5.90
2019-05-12T22:36:13.888Z,6.25
2019-05-12T22:38:34.189Z,6.58
2019-05-12T22:41:04.393Z,4.62
2019-05-12T22:43:40.983Z,6.17
2019-05-12T22:46:04.557Z,3.92
2019-05-12T22:48:37.288Z,5.10
2019-05-12T22:51:06.173Z,5.53
2019-05-12T22:53:36.143Z,4.65
2019-05-12T22:56:12.107Z,3.80
2019-05-12T22:58:34.919Z,8.10
2019-05-12T23:01:05.264Z,5.65
2019-05-12T23:03:36.114Z,6.83
2019-05-12T23:06:20.273Z,5.35
2019-05-12T23:08:38.722Z,5.20
2019-05-12T23:11:05.532Z,7.80
2019-05-12T23:13:40.904Z,7.67
2019-05-12T23:16:04.739Z,5.65
2019-05-12T23:18:33.850Z,3.85
2019-05-12T23:21:06.397Z,4.08
2019-05-12T23:23:33.877Z,5.85
2019-05-12T23:26:02.583Z,8.08
2019-05-12T23:28:30.897Z,3.12
2019-05-12T23:30:59.224Z,10.68
2019-05-12T23:33:31.767Z,4.03
2019-05-12T23:35:58.236Z,3.72
2019-05-12T23:38:27.567Z,9.10
2019-05-12T23:40:55.907Z,3.83
2019-05-12T23:43:24.895Z,3.47
2019-05-12T23:45:53.895Z,4.95
2019-05-12T23:48:22.557Z,5.37
2019-05-12T23:50:50.855Z,4.03
2019-05-12T23:53:19.406Z,4.92
2019-05-12T23:55:49.228Z,4.03
2019-05-12T23:58:17.913Z,6.72
